Isle, Minnesota
Current Conditions -  °F | °C
As of 11:45 PM on Saturday 27 Dec 2014 (Local Time) from KJMR Reporting Station
Broken Clouds Broken Clouds  
Wind Chill: 11°   Ceiling: 8500
Heat Index: 18°   Visibility: 10mi
Dew Point: 12°   Wind: 5mph
Humidity: 79%   Direction: 230°SW
Pressure: 30.05"   Gusts: NA
Location:  46.14°N, 93.47°W
Report Text: KJMR 280545Z AUTO 23004KT 10SM SCT016 BKN085 M08/M11 A3005 RMK AO2
Loading
Personal Weather Stations






























Interactive Weather Map New forecast layout! Learn more

10-Day Weather Forecast

Advertisements
Track Severe Weather on mobile